createdAt,value
2022-11-24T00:02:32.648Z,100026.22
2022-11-24T00:07:34.422Z,100015.22
2022-11-24T00:12:36.027Z,100018.66
2022-11-24T00:17:37.537Z,100025.50
2022-11-24T00:22:40.194Z,100028.03
2022-11-24T00:27:43.245Z,100034.09
2022-11-24T00:32:45.051Z,100046.09
2022-11-24T00:37:46.535Z,100042.63
2022-11-24T00:42:48.045Z,100050.22
2022-11-24T00:47:49.556Z,100050.47
2022-11-24T00:52:51.167Z,100049.69
2022-11-24T00:57:52.751Z,100056.63
2022-11-24T01:02:54.927Z,100057.22
2022-11-24T01:07:56.525Z,100068.34
2022-11-24T01:12:58.417Z,100072.47
2022-11-24T01:18:00.011Z,100079.91
2022-11-24T01:23:01.504Z,100098.91
2022-11-24T01:28:03.310Z,100107.31
2022-11-24T01:33:05.314Z,100109.19
2022-11-24T01:38:06.877Z,100106.63
2022-11-24T01:43:21.783Z,100107.69
2022-11-24T01:48:29.955Z,100116.13
2022-11-24T01:53:31.517Z,100109.59
2022-11-24T01:58:34.568Z,100122.25
2022-11-24T02:03:39.845Z,100123.34
2022-11-24T02:08:48.899Z,100137.13
2022-11-24T02:13:53.237Z,100141.44
2022-11-24T02:18:54.799Z,100146.41
2022-11-24T02:24:37.799Z,100162.69
2022-11-24T02:29:40.195Z,100169.50
2022-11-24T02:34:41.638Z,100163.59
2022-11-24T02:39:43.088Z,100163.50
2022-11-24T02:44:51.472Z,100157.97
2022-11-24T02:49:53.137Z,100163.28
2022-11-24T02:54:54.638Z,100169.28
2022-11-24T02:59:56.583Z,100158.75
2022-11-24T03:04:58.062Z,100155.63
2022-11-24T03:09:59.688Z,100158.13
2022-11-24T03:15:01.257Z,100162.25
2022-11-24T03:20:05.217Z,100164.03
2022-11-24T03:25:07.398Z,100171.19
2022-11-24T03:30:09.901Z,100176.97
2022-11-24T03:35:12.173Z,100179.81
2022-11-24T03:40:13.948Z,100185.81
2022-11-24T03:50:37.018Z,100198.78
2022-11-24T03:55:38.476Z,100200.47
2022-11-24T04:00:40.495Z,100211.69
2022-11-24T04:05:42.177Z,100221.88
2022-11-24T04:10:43.823Z,100219.19
2022-11-24T04:15:45.349Z,100226.84
2022-11-24T04:20:52.024Z,100220.59
2022-11-24T04:25:53.447Z,100232.50
2022-11-24T04:30:54.888Z,100233.28
2022-11-24T04:35:56.438Z,100248.72
2022-11-24T04:41:02.511Z,100243.63
2022-11-24T04:46:04.013Z,100254.94
2022-11-24T04:51:06.282Z,100254.00
2022-11-24T04:56:08.116Z,100255.22
2022-11-24T05:01:09.761Z,100268.91
2022-11-24T05:06:11.254Z,100265.72
2022-11-24T05:11:12.701Z,100266.47
2022-11-24T05:16:14.105Z,100282.75
2022-11-24T05:21:15.872Z,100293.88
2022-11-24T05:26:17.299Z,100301.47
2022-11-24T05:31:18.951Z,100314.09
2022-11-24T05:36:38.772Z,100318.31
2022-11-24T05:41:41.807Z,100322.44
2022-11-24T05:46:43.317Z,100330.88
2022-11-24T05:51:44.818Z,100334.19
2022-11-24T05:56:46.280Z,100341.75
2022-11-24T06:01:48.000Z,100352.00
2022-11-24T06:06:49.549Z,100362.44
2022-11-24T06:11:51.056Z,100373.53
2022-11-24T06:16:52.487Z,100384.63
2022-11-24T06:21:53.862Z,100390.69
2022-11-24T06:26:55.291Z,100400.84
2022-11-24T06:31:56.947Z,100405.00
2022-11-24T06:36:58.446Z,100405.75
2022-11-24T06:41:59.883Z,100426.25
2022-11-24T06:47:01.682Z,100437.28
2022-11-24T06:52:03.279Z,100440.69
2022-11-24T06:57:04.701Z,100449.34
2022-11-24T07:02:06.376Z,100453.59
2022-11-24T07:07:07.848Z,100461.31
2022-11-24T07:12:09.339Z,100471.56
2022-11-24T07:17:10.746Z,100478.41
2022-11-24T07:22:12.216Z,100491.34
2022-11-24T07:27:13.668Z,100504.91
2022-11-24T07:32:15.108Z,100504.91
2022-11-24T07:37:16.793Z,100528.16
2022-11-24T07:42:18.192Z,100529.91
2022-11-24T07:47:19.663Z,100531.59
2022-11-24T07:52:21.104Z,100549.63
2022-11-24T07:57:23.445Z,100542.81
2022-11-24T08:02:24.956Z,100566.91
2022-11-24T08:07:26.340Z,100569.50
2022-11-24T08:12:27.754Z,100580.00
2022-11-24T08:17:29.346Z,100589.47
2022-11-24T08:22:30.811Z,100596.47
2022-11-24T08:27:32.299Z,100601.63
2022-11-24T08:32:33.739Z,100613.69
2022-11-24T08:37:35.148Z,100614.59
2022-11-24T08:42:36.664Z,100614.63
2022-11-24T08:47:39.750Z,100613.78
2022-11-24T08:52:41.300Z,100615.63
2022-11-24T08:57:42.661Z,100626.75
2022-11-24T09:02:44.216Z,100638.03
2022-11-24T09:07:45.839Z,100641.44
2022-11-24T09:12:48.303Z,100644.88
2022-11-24T09:17:49.850Z,100659.63
2022-11-24T09:22:51.253Z,100660.84
2022-11-24T09:27:52.643Z,100668.78
2022-11-24T09:32:56.163Z,100678.34
2022-11-24T09:37:57.563Z,100683.97
2022-11-24T09:43:40.999Z,100685.75
2022-11-24T09:48:47.791Z,100695.25
2022-11-24T09:53:56.145Z,100700.78
2022-11-24T09:59:26.257Z,100707.63
2022-11-24T10:04:29.025Z,100716.56
2022-11-24T10:09:56.788Z,100723.53
2022-11-24T10:15:22.031Z,100731.41
2022-11-24T10:20:48.622Z,100738.34
2022-11-24T10:26:00.824Z,100751.25
2022-11-24T10:31:21.653Z,100756.00
2022-11-24T10:36:42.922Z,100763.31
2022-11-24T10:41:56.838Z,100782.22
2022-11-24T10:46:58.581Z,100790.31
2022-11-24T10:52:15.766Z,100793.28
2022-11-24T10:57:33.377Z,100797.56
2022-11-24T11:02:36.368Z,100815.09
2022-11-24T11:07:38.000Z,100822.91
2022-11-24T11:12:44.384Z,100845.97
2022-11-24T11:17:46.402Z,100850.81
2022-11-24T11:22:50.564Z,100859.34
2022-11-24T11:28:18.466Z,100848.06
2022-11-24T11:38:48.596Z,100865.63
2022-11-24T11:43:57.699Z,100874.69
2022-11-24T11:48:59.843Z,100869.25
2022-11-24T11:54:45.731Z,100858.47
2022-11-24T12:00:09.635Z,100866.91
2022-11-24T12:05:39.183Z,100870.13
2022-11-24T12:10:48.119Z,100882.69
2022-11-24T12:15:52.308Z,100875.66
2022-11-24T12:21:26.000Z,100891.38
2022-11-24T12:26:31.066Z,100874.63
2022-11-24T12:31:52.379Z,100882.69
2022-11-24T12:37:06.919Z,100885.78
2022-11-24T12:42:14.433Z,100880.41
2022-11-24T12:47:34.719Z,100880.22
2022-11-24T12:53:03.705Z,100883.69
2022-11-24T12:58:40.124Z,100894.84
2022-11-24T13:04:08.321Z,100899.88
2022-11-24T13:09:14.371Z,100914.34
2022-11-24T13:14:17.727Z,100896.56
2022-11-24T13:19:30.889Z,100905.81
2022-11-24T13:24:36.542Z,100897.13
2022-11-24T13:29:40.221Z,100907.31
2022-11-24T13:34:49.996Z,100896.28
2022-11-24T13:39:57.152Z,100900.50
2022-11-24T13:45:04.162Z,100894.63
2022-11-24T13:50:12.541Z,100899.69
2022-11-24T13:55:13.979Z,100882.59
2022-11-24T14:00:25.983Z,100885.09
2022-11-24T14:05:35.608Z,100886.53
2022-11-24T14:10:40.909Z,100886.34
2022-11-24T14:15:42.401Z,100884.72
2022-11-24T14:20:43.904Z,100883.69
2022-11-24T14:25:51.154Z,100883.56
2022-11-24T14:31:25.154Z,100881.91
2022-11-24T14:36:29.816Z,100874.81
2022-11-24T14:41:33.644Z,100872.03
2022-11-24T14:46:36.575Z,100869.06
2022-11-24T14:51:45.342Z,100875.28
2022-11-24T14:57:04.747Z,100877.41
2022-11-24T15:02:38.159Z,100883.72
2022-11-24T15:07:43.227Z,100889.44
2022-11-24T15:12:58.448Z,100897.09
2022-11-24T15:18:01.716Z,100898.88
2022-11-24T15:23:29.069Z,100896.69
2022-11-24T15:28:31.316Z,100903.22
2022-11-24T15:33:33.233Z,100896.84
2022-11-24T15:38:35.001Z,100901.53
2022-11-24T15:43:41.031Z,100905.09
2022-11-24T15:48:42.437Z,100909.50
2022-11-24T15:53:46.717Z,100915.25
2022-11-24T15:58:49.401Z,100913.81
2022-11-24T16:03:51.233Z,100902.44
2022-11-24T16:08:53.944Z,100910.28
2022-11-24T16:13:56.796Z,100908.44
2022-11-24T16:18:58.264Z,100900.59
2022-11-24T16:23:59.681Z,100904.19
2022-11-24T16:29:01.038Z,100901.72
2022-11-24T16:34:03.180Z,100895.13
2022-11-24T16:39:07.153Z,100897.88
2022-11-24T16:44:08.594Z,100898.75
2022-11-24T16:49:10.029Z,100903.91
2022-11-24T16:54:11.729Z,100899.44
2022-11-24T16:59:13.157Z,100908.69
2022-11-24T17:04:14.583Z,100902.63
2022-11-24T17:09:16.881Z,100895.44
2022-11-24T17:14:18.267Z,100900.66
2022-11-24T17:19:20.116Z,100887.06
2022-11-24T17:24:21.604Z,100891.63
2022-11-24T17:29:23.062Z,100893.25
2022-11-24T17:34:24.426Z,100896.47
2022-11-24T17:39:27.287Z,100897.47
2022-11-24T17:44:28.665Z,100896.63
2022-11-24T17:49:30.076Z,100895.94
2022-11-24T17:54:45.878Z,100907.06
2022-11-24T17:59:48.040Z,100906.09
2022-11-24T18:04:49.581Z,100911.19
2022-11-24T18:09:51.028Z,100921.75
2022-11-24T18:14:52.392Z,100919.13
2022-11-24T18:19:53.778Z,100914.38
2022-11-24T18:24:55.340Z,100916.91
2022-11-24T18:29:56.810Z,100917.34
2022-11-24T18:34:58.323Z,100920.25
2022-11-24T18:40:00.242Z,100917.84
2022-11-24T18:45:01.674Z,100916.09
2022-11-24T18:50:03.321Z,100910.63
2022-11-24T18:55:05.343Z,100915.97
2022-11-24T19:00:07.780Z,100907.72
2022-11-24T19:05:09.267Z,100902.06
2022-11-24T19:10:11.289Z,100898.06
2022-11-24T19:15:12.736Z,100899.31
2022-11-24T19:20:14.377Z,100907.25
2022-11-24T19:25:15.889Z,100900.28
2022-11-24T19:30:17.305Z,100883.88
2022-11-24T19:35:18.938Z,100877.72
2022-11-24T19:40:20.363Z,100885.53
2022-11-24T19:45:21.733Z,100885.75
2022-11-24T19:50:23.208Z,100882.91
2022-11-24T19:55:25.795Z,100881.34
2022-11-24T20:00:31.846Z,100894.50
2022-11-24T20:05:33.798Z,100895.63
2022-11-24T20:10:35.352Z,100895.56
2022-11-24T20:15:36.758Z,100897.19
2022-11-24T20:20:38.273Z,100889.19
2022-11-24T20:25:39.737Z,100886.19
2022-11-24T20:30:41.165Z,100891.84
2022-11-24T20:35:42.815Z,100892.22
2022-11-24T20:40:44.267Z,100888.44
2022-11-24T20:45:46.009Z,100899.44
2022-11-24T20:50:51.296Z,100897.38
2022-11-24T20:56:06.197Z,100899.81
2022-11-24T21:01:16.648Z,100894.16
2022-11-24T21:06:18.243Z,100896.19
2022-11-24T21:11:20.867Z,100888.06
2022-11-24T21:16:36.278Z,100895.53
2022-11-24T21:21:39.326Z,100895.19
2022-11-24T21:26:42.663Z,100890.00
2022-11-24T21:31:44.202Z,100879.78
2022-11-24T21:36:47.545Z,100878.03
2022-11-24T21:41:49.149Z,100869.09
2022-11-24T21:46:55.698Z,100872.69
2022-11-24T21:51:57.641Z,100871.31
2022-11-24T21:56:59.109Z,100858.97
2022-11-24T22:02:02.368Z,100855.38
2022-11-24T22:07:04.092Z,100855.16
2022-11-24T22:12:05.817Z,100844.63
2022-11-24T22:17:07.780Z,100838.75
2022-11-24T22:22:10.088Z,100837.72
2022-11-24T22:27:11.465Z,100834.94
2022-11-24T22:32:13.048Z,100839.44
2022-11-24T22:37:14.439Z,100825.22
2022-11-24T22:42:15.848Z,100826.75
2022-11-24T22:47:17.406Z,100820.06
2022-11-24T22:52:18.972Z,100813.25
2022-11-24T22:57:20.583Z,100813.53
2022-11-24T23:02:21.966Z,100825.72
2022-11-24T23:07:25.140Z,100824.66
2022-11-24T23:12:26.793Z,100826.72
2022-11-24T23:17:28.439Z,100819.94
2022-11-24T23:22:31.153Z,100817.03
2022-11-24T23:27:33.569Z,100814.75
2022-11-24T23:32:34.944Z,100814.53
2022-11-24T23:37:59.839Z,100811.97
2022-11-24T23:42:57.961Z,100806.66
2022-11-24T23:47:59.404Z,100811.94
2022-11-24T23:53:00.776Z,100814.59
2022-11-24T23:58:02.237Z,100808.28
